Data for 09/12/2006

Time Sea-Level Adjusted Pressure Absolute Pressure Temperature Relative Humidity Dew Point Precipitation   
(mb) (inHg) (mb) (inHg) (C) (F) (%) (C) (F) (mm) (in)
00:05 1026 30.3 855 25.25 10.6 51.1 30 -6.2 20.8 0
00:10 1026 30.3 855 25.25 12 53.6 26 -6.7 19.9 0
00:15 1026 30.3 855 25.25 12.8 55 29 -5 23.1 0
00:20 1026 30.3 855 25.25 12 53.5 29 -5.6 21.9 0
00:25 1026 30.3 855 25.25 11.8 53.3 30 -5.3 22.5 0
00:30 1026 30.3 855 25.25 11 51.8 33 -4.7 23.5 0
00:35 1026 30.3 855 25.25 10 49.9 36 -4.5 24 0
00:40 1026 30.3 855 25.25 9.1 48.3 39 -4 24.7 0
00:45 1026 30.3 855 25.25 8.3 46.9 41 -4.1 24.5 0
00:50 1026 30.3 855 25.25 8 46.5 42 -4.2 24.4 0
00:55 1026 30.3 855 25.25 7.7 45.8 45 -3.5 25.7 0
01:00 1026 30.3 855 25.25 6.7 44 48 -3.5 25.7 0
01:05 1026 30.3 855 25.25 6.3 43.4 49 -3.5 25.7 0
01:10 1026 30.3 855 25.25 6 42.8 47 -4.4 24.1 0
01:15 1026 30.3 855 25.25 6.5 43.7 45 -4.5 23.9 0
01:20 1026 30.3 855 25.25 6.6 43.9 45 -4.5 23.9 0
01:25 1026 30.3 855 25.25 6.7 44 46 -4.1 24.6 0
01:30 1026 30.3 856 25.28 6.4 43.5 47 -3.9 24.9 0
01:35 1026 30.3 856 25.28 5.9 42.6 52 -3.3 26 0
01:40 1026 30.3 856 25.28 5.4 41.7 53 -3.5 25.7 0
01:45 1026 30.3 856 25.28 5.7 42.3 49 -4.1 24.6 0
01:50 1026 30.3 856 25.28 5.9 42.6 51 -3.5 25.7 0
01:55 1026 30.3 856 25.28 5.6 42 50 -3.9 24.9 0
02:00 1026 30.3 856 25.28 5.6 42.2 49 -4.2 24.4 0
02:05 1026 30.3 856 25.28 6 42.8 49 -3.8 25.1 0
02:10 1026 30.3 856 25.28 5.6 42.1 50 -4.1 24.7 0
02:15 1026 30.3 856 25.28 5.7 42.3 50 -3.8 25.1 0
02:20 1027 30.33 856 25.28 5.5 41.8 52 -3.7 25.4 0
02:25 1027 30.33 856 25.28 5.3 41.6 50 -4.3 24.3 0
02:30 1027 30.33 856 25.28 5.7 42.3 49 -4.2 24.5 0
02:35 1027 30.33 856 25.28 5.9 42.7 46 -4.7 23.5 0
02:40 1027 30.33 856 25.28 6.5 43.7 45 -4.6 23.8 0
02:45 1027 30.33 856 25.28 6 42.7 50 -3.6 25.5 0
02:50 1027 30.33 856 25.28 5.7 42.2 49 -4.1 24.6 0
02:55 1027 30.33 856 25.28 6.1 42.9 46 -4.6 23.6 0
03:00 1027 30.33 856 25.28 6.7 44 43 -4.9 23.2 0
03:05 1027 30.33 856 25.28 7.1 44.7 43 -4.7 23.6 0
03:10 1027 30.33 856 25.28 6.9 44.5 45 -4.1 24.6 0
03:15 1027 30.33 856 25.28 6.7 44.1 45 -4.4 24.1 0
03:20 1027 30.33 856 25.28 6.5 43.7 45 -4.6 23.7 0
03:25 1027 30.33 856 25.28 6.7 44 44 -4.6 23.7 0
03:30 1027 30.33 856 25.28 6.4 43.6 44 -4.9 23.2 0
03:35 1027 30.33 856 25.28 6.5 43.8 43 -5.2 22.6 0
03:40 1027 30.33 856 25.28 6.8 44.3 45 -4.2 24.4 0
03:45 1027 30.33 856 25.28 6.6 43.9 46 -4.3 24.2 0
03:50 1027 30.33 856 25.28 6.6 43.9 47 -3.7 25.3 0
03:55 1027 30.33 856 25.28 6.9 44.4 47 -3.6 25.5 0
04:00 1027 30.33 856 25.28 7.4 45.4 44 -4 24.8 0
04:05 1027 30.33 856 25.28 7.8 46 44 -3.8 25.1 0
04:10 1027 30.33 856 25.28 7.7 45.9 44 -3.8 25.1 0
04:15 1027 30.33 856 25.28 7.9 46.2 41 -4.6 23.8 0
04:20 1027 30.33 856 25.28 9.1 48.5 34 -5.8 21.5 0
04:25 1027 30.33 856 25.28 10.2 50.3 36 -4.3 24.3 0
04:30 1027 30.33 856 25.28 9.6 49.2 39 -3.9 25.1 0
04:35 1027 30.33 856 25.28 8.2 46.7 49 -1.9 28.7 0
04:40 1027 30.33 856 25.28 6.5 43.8 49 -3.5 25.8 0
04:45 1027 30.33 856 25.28 6.5 43.6 49 -3.5 25.7 0
04:50 1027 30.33 856 25.28 6.2 43.2 49 -3.7 25.4 0
04:55 1027 30.33 856 25.28 6.7 44 46 -4.1 24.7 0
05:00 1027 30.33 856 25.28 7 44.6 48 -3.3 26 0
05:05 1027 30.33 856 25.28 6.9 44.3 49 -3.2 26.2 0
05:10 1027 30.33 856 25.28 6.5 43.6 49 -3.6 25.6 0
05:15 1027 30.33 856 25.28 6.4 43.5 45 -4.5 23.8 0
05:20 1027 30.33 856 25.28 7.1 44.8 45 -4 24.8 0
05:25 1027 30.33 856 25.28 6.6 43.8 47 -3.8 25.1 0
05:30 1027 30.33 856 25.28 6.2 43.2 48 -4 24.8 0
05:35 1027 30.33 856 25.28 6.1 42.9 50 -3.7 25.4 0
05:40 1027 30.33 856 25.28 5.3 41.5 54 -3.2 26.3 0
05:45 1027 30.33 856 25.28 4.6 40.3 55 -3.7 25.4 0
05:50 1027 30.33 856 25.28 4.6 40.2 55 -3.7 25.3 0
05:55 1027 30.33 856 25.28 4.5 40.1 57 -3.4 25.9 0
06:00 1027 30.33 856 25.28 4.1 39.5 57 -3.6 25.5 0
06:05 1027 30.33 856 25.28 4.3 39.7 57 -3.4 25.8 0
06:10 1027 30.33 856 25.28 4.1 39.4 56 -4 24.8 0
06:15 1027 30.33 856 25.28 4.7 40.4 53 -4.2 24.5 0
06:20 1027 30.33 856 25.28 4.3 39.7 57 -3.6 25.5 0
06:25 1027 30.33 856 25.28 3.5 38.3 60 -3.6 25.4 0
06:30 1027 30.33 856 25.28 3.4 38.1 60 -3.7 25.3 0
06:35 1027 30.33 856 25.28 4.2 39.6 56 -3.8 25.1 0
06:40 1027 30.33 856 25.28 4.7 40.5 53 -4 24.7 0
06:45 1027 30.33 856 25.28 4.9 40.8 54 -3.7 25.3 0
06:50 1027 30.33 856 25.28 5.2 41.4 51 -4 24.8 0
06:55 1027 30.33 856 25.28 5.3 41.5 53 -3.5 25.7 0
07:00 1027 30.33 856 25.28 5.2 41.4 52 -3.8 25.2 0
07:05 1027 30.33 856 25.28 5.3 41.5 53 -3.5 25.8 0
07:10 1027 30.33 856 25.28 4.7 40.5 56 -3.3 26.1 0
07:15 1027 30.33 856 25.28 4.3 39.7 59 -2.9 26.7 0
07:20 1027 30.33 856 25.28 4 39.2 60 -3.1 26.4 0
07:25 1027 30.33 856 25.28 4.7 40.4 55 -3.6 25.5 0
07:30 1027 30.33 857 25.31 5.6 42.1 54 -3 26.6 0
07:35 1027 30.33 857 25.31 5.8 42.4 54 -2.7 27.1 0
07:40 1027 30.33 857 25.31 5.7 42.3 56 -2.4 27.6 0
07:45 1028 30.36 857 25.31 6.1 43 52 -3 26.6 0
07:50 1028 30.36 857 25.31 7.1 44.9 49 -2.8 26.9 0
07:55 1028 30.36 857 25.31 7.5 45.6 47 -3 26.5 0
08:00 1028 30.36 857 25.31 7.8 46.1 48 -2.5 27.5 0
08:05 1028 30.36 857 25.31 8.2 46.8 50 -1.6 29.1 0
08:10 1028 30.36 857 25.31 8.9 48.1 50 -0.9 30.4 0
08:15 1028 30.36 857 25.31 9.5 49.1 49 -0.8 30.6 0
08:20 1028 30.36 857 25.31 10.5 51 44 -1.2 29.8 0
08:25 1028 30.36 857 25.31 11.5 52.7 42 -1 30.3 0
08:30 1028 30.36 857 25.31 12.1 53.8 44 0.3 32.5 0
08:35 1028 30.36 857 25.31 12.7 54.9 42 0.2 32.4 0
08:40 1028 30.36 857 25.31 13.4 56.1 41 0.5 32.9 0
08:45 1028 30.36 857 25.31 13.7 56.7 43 1.4 34.4 0
08:50 1028 30.36 857 25.31 13.6 56.4 35 -1.4 29.4 0
08:55 1028 30.36 857 25.31 13.7 56.7 33 -2.2 28 0
09:00 1028 30.36 857 25.31 14.4 57.8 34 -1.2 29.9 0
09:05 1028 30.36 857 25.31 14.8 58.7 33 -1.1 30.1 0
09:10 1028 30.36 857 25.31 15.1 59.1 31 -1.9 28.6 0
09:15 1028 30.36 857 25.31 15.4 59.8 28 -2.7 27.1 0
09:20 1028 30.36 857 25.31 15.8 60.5 31 -1.3 29.6 0
09:25 1028 30.36 857 25.31 16.5 61.6 28 -2 28.5 0
09:30 1028 30.36 857 25.31 17.2 63 26 -2.2 28 0
09:35 1027 30.33 857 25.31 17.1 62.9 33 0.9 33.7 0
09:40 1027 30.33 857 25.31 16.8 62.3 29 -1.3 29.6 0
09:45 1027 30.33 857 25.31 17.1 62.8 24 -3.4 25.9 0
09:50 1027 30.33 857 25.31 17.4 63.4 29 -0.9 30.4 0
09:55 1027 30.33 857 25.31 17.9 64.2 27 -1.4 29.5 0
10:00 1027 30.33 857 25.31 18.1 64.6 24 -2.6 27.3 0
10:05 1027 30.33 857 25.31 18.3 65 23 -2.9 26.7 0
10:10 1027 30.33 857 25.31 18.5 65.4 25 -2 28.4 0
10:15 1027 30.33 857 25.31 18.8 65.8 29 0.5 32.9 0
10:20 1027 30.33 857 25.31 18.7 65.7 26 -1.2 29.9 0
10:25 1027 30.33 857 25.31 18.5 65.2 27 -0.9 30.4 0
10:30 1027 30.33 856 25.28 18.6 65.5 26 -1.4 29.5 0
10:35 1027 30.33 856 25.28 18.7 65.7 28 -0.2 31.6 0
10:40 1027 30.33 856 25.28 19 66.2 23 -2.2 28.1 0
10:45 1027 30.33 856 25.28 19.2 66.6 24 -1.9 28.6 0
10:50 1027 30.33 856 25.28 19.3 66.8 23 -2.1 28.1 0
10:55 1027 30.33 856 25.28 19.6 67.3 24 -1.4 29.5 0
11:00 1027 30.33 856 25.28 20.1 68.2 21 -2.8 27 0
11:05 1027 30.33 856 25.28 20 68 21 -3 26.5 0
11:10 1027 30.33 856 25.28 20.2 68.3 25 -0.6 31 0
11:15 1027 30.33 856 25.28 20.8 69.5 22 -1.6 29.1 0
11:20 1027 30.33 856 25.28 20.9 69.5 24 -0.2 31.6 0
11:25 1027 30.33 856 25.28 20.8 69.5 22 -1.5 29.3 0
11:30 1027 30.33 856 25.28 21.1 70 21 -1.6 29.1 0
11:35 1027 30.33 856 25.28 21.3 70.4 24 0.1 32.3 0
11:40 1027 30.33 856 25.28 21.6 70.9 22 -0.6 30.8 0
11:45 1027 30.33 856 25.28 21.7 71 22 -0.7 30.8 0
11:50 1027 30.33 856 25.28 22.1 71.8 20 -2 28.4 0
11:55 1027 30.33 856 25.28 22.5 72.4 21 -1 30.3 0
12:00 1027 30.33 856 25.28 22.5 72.5 20 -1.1 30.1 0
12:05 1027 30.33 856 25.28 22.8 73.1 25 1.8 35.3 0
12:10 1027 30.33 856 25.28 23.2 73.7 21 -0.3 31.4 0
12:15 1026 30.3 856 25.28 23.1 73.6 18 -2.1 28.3 0
12:20 1026 30.3 856 25.28 23 73.5 20 -0.7 30.7 0
12:25 1026 30.3 856 25.28 23.4 74.2 17 -2.8 27 0
12:30 1026 30.3 855 25.25 23.4 74.1 19 -1.6 29.1 0
12:35 1026 30.3 855 25.25 23.5 74.2 16 -3.4 25.9 0
12:40 1026 30.3 855 25.25 23.8 74.8 19 -0.8 30.5 0
12:45 1026 30.3 855 25.25 23.8 74.8 18 -1.6 29 0
12:50 1026 30.3 855 25.25 23.9 75.1 18 -1.4 29.4 0
12:55 1026 30.3 855 25.25 24 75.2 16 -3.4 25.9 0
13:00 1026 30.3 855 25.25 24.3 75.7 19 -0.9 30.3 0
13:05 1026 30.3 855 25.25 24.5 76 17 -2.3 27.8 0
13:10 1026 30.3 855 25.25 24.5 76.1 18 -1 30.1 0
13:15 1026 30.3 855 25.25 24.9 76.9 14 -4 24.8 0
13:20 1026 30.3 855 25.25 24.6 76.3 19 -0.3 31.4 0
13:25 1026 30.3 855 25.25 24.4 76 17 -1.8 28.7 0
13:30 1026 30.3 855 25.25 24.7 76.5 16 -2.3 27.9 0
13:35 1026 30.3 855 25.25 25.1 77.1 18 -0.8 30.5 0
13:40 1025 30.27 855 25.25 24.9 76.9 15 -3.4 25.9 0
13:45 1025 30.27 855 25.25 24.9 76.9 16 -2.1 28.1 0
13:50 1025 30.27 855 25.25 25.3 77.5 16 -1.7 28.9 0
13:55 1025 30.27 855 25.25 25.4 77.7 16 -2.4 27.7 0
14:00 1025 30.27 855 25.25 25.4 77.8 14 -3.7 25.4 0
14:05 1025 30.27 854 25.22 25.5 78 16 -2.2 28.1 0
14:10 1025 30.27 854 25.22 25.7 78.3 19 0.9 33.6 0
14:15 1025 30.27 854 25.22 25.8 78.4 18 -0.2 31.6 0
14:20 1025 30.27 854 25.22 25.8 78.4 14 -3.1 26.4 0
14:25 1025 30.27 854 25.22 25.9 78.6 15 -2.1 28.3 0
14:30 1025 30.27 854 25.22 25.8 78.5 17 -0.4 31.2 0
14:35 1025 30.27 854 25.22 25.7 78.3 14 -3.2 26.2 0
14:40 1025 30.27 854 25.22 26.3 79.4 14 -3.4 25.9 0
14:45 1025 30.27 854 25.22 26 78.9 17 -0.7 30.7 0
14:50 1025 30.27 854 25.22 26.3 79.4 14 -3.4 25.9 0
14:55 1024 30.24 854 25.22 26.4 79.5 17 -0.7 30.7 0
15:00 1024 30.24 854 25.22 26.5 79.6 15 -2.4 27.6 0
15:05 1024 30.24 854 25.22 26.4 79.5 14 -3.3 26.1 0
15:10 1024 30.24 853 25.19 26.5 79.7 14 -2.6 27.3 0
15:15 1024 30.24 853 25.19 26.5 79.6 14 -2.7 27.1 0
15:20 1024 30.24 853 25.19 26.5 79.7 13 -3.5 25.8 0
15:25 1024 30.24 853 25.19 26.6 80 14 -2.7 27.1 0
15:30 1024 30.24 853 25.19 26.6 79.9 15 -2.3 27.9 0
15:35 1024 30.24 853 25.19 26.7 80.1 15 -2.1 28.3 0
15:40 1024 30.24 853 25.19 26.6 80 14 -2.4 27.8 0
15:45 1024 30.24 853 25.19 26.4 79.4 14 -2.6 27.3 0
15:50 1024 30.24 853 25.19 26.5 79.7 14 -3.2 26.2 0
15:55 1024 30.24 853 25.19 26.4 79.5 17 0.1 32.1 0
16:00 1023 30.21 853 25.19 26.8 80.2 15 -2.2 28 0
16:05 1023 30.21 853 25.19 26.8 80.2 18 0.6 33.1 0
16:10 1023 30.21 853 25.19 26.6 79.8 14 -2.6 27.2 0
16:15 1023 30.21 852 25.16 26.6 79.9 15 -2.2 28 0
16:20 1023 30.21 852 25.16 26.8 80.2 14 -2.6 27.3 0
16:25 1023 30.21 852 25.16 26.9 80.4 15 -1.3 29.6 0
16:30 1023 30.21 852 25.16 26.9 80.4 14 -3 26.5 0
16:35 1023 30.21 852 25.16 26.9 80.4 12 -4.2 24.5 0
16:40 1023 30.21 852 25.16 26.8 80.3 15 -2 28.4 0
16:45 1023 30.21 852 25.16 26.7 80.1 17 -0.4 31.2 0
16:50 1023 30.21 852 25.16 26.7 80.1 17 0.2 32.4 0
16:55 1023 30.21 852 25.16 26.8 80.2 17 -0.2 31.7 0
17:00 1023 30.21 852 25.16 27.2 81 15 -1.7 28.9 0
17:05 1023 30.21 852 25.16 27 80.7 14 -2.4 27.6 0
17:10 1023 30.21 852 25.16 26.8 80.2 14 -2.9 26.8 0
17:15 1023 30.21 852 25.16 26.6 79.9 14 -2.9 26.8 0
17:20 1023 30.21 852 25.16 27 80.5 17 -0.1 31.9 0
17:25 1023 30.21 852 25.16 26.8 80.2 19 1.8 35.2 0
17:30 1023 30.21 852 25.16 26.5 79.7 15 -1.5 29.3 0
17:35 1022 30.18 852 25.16 26.6 79.8 20 1.8 35.2 0
17:40 1022 30.18 852 25.16 26.6 79.8 17 -0.5 31.2 0
17:45 1022 30.18 852 25.16 26.6 79.9 14 -2.9 26.8 0
17:50 1022 30.18 851 25.13 26.8 80.3 18 0.7 33.2 0
17:55 1022 30.18 851 25.13 26.7 80 19 1.5 34.7 0
18:00 1022 30.18 851 25.13 26.7 80 14 -2.4 27.6 0
18:05 1022 30.18 851 25.13 26.5 79.6 16 -1 30.2 0
18:10 1022 30.18 851 25.13 26.3 79.4 18 0.2 32.4 0
18:15 1022 30.18 851 25.13 26.1 78.9 16 -1.7 29 0
18:20 1022 30.18 851 25.13 26.1 79 18 -0.1 31.8 0
18:25 1022 30.18 851 25.13 26.2 79.1 18 0.6 33 0
18:30 1022 30.18 851 25.13 26.4 79.5 18 0.7 33.3 0
18:35 1022 30.18 851 25.13 26.7 80.1 16 -1.3 29.7 0
18:40 1022 30.18 851 25.13 26.6 80 18 0.3 32.6 0
18:45 1022 30.18 851 25.13 26.1 79 16 -1.4 29.5 0
18:50 1022 30.18 851 25.13 26.1 79 15 -2.6 27.3 0
18:55 1022 30.18 851 25.13 26.2 79.1 14 -3.5 25.7 0
19:00 1022 30.18 851 25.13 25.6 78 25 4.2 39.6 0
19:05 1022 30.18 851 25.13 23.4 74.1 24 2 35.6 0
19:10 1022 30.18 851 25.13 22.4 72.3 35 6.6 43.9 0
19:15 1022 30.18 851 25.13 19.7 67.4 44 7.2 45 0
19:20 1022 30.18 851 25.13 17.9 64.3 48 6.9 44.5 0
19:25 1022 30.18 851 25.13 16.8 62.3 46 5.2 41.4 0
19:30 1022 30.18 851 25.13 15.9 60.6 50 5.6 42.1 0
19:35 1022 30.18 851 25.13 15.1 59.2 48 4.2 39.5 0
19:40 1022 30.18 851 25.13 15.3 59.6 44 3.1 37.6 0
19:45 1022 30.18 851 25.13 15.1 59.3 45 3.5 38.2 0
19:50 1022 30.18 851 25.13 14.4 57.9 44 2.3 36.2 0
19:55 1022 30.18 851 25.13 14.3 57.7 45 2.5 36.6 0
20:00 1022 30.18 851 25.13 13.8 56.8 45 2.1 35.9 0
20:05 1022 30.18 851 25.13 13.8 56.8 43 1.4 34.6 0
20:10 1022 30.18 851 25.13 13.9 57 41 0.8 33.4 0
20:15 1021 30.15 851 25.13 13.8 56.8 42 1.3 34.3 0
20:20 1021 30.15 851 25.13 13.4 56.2 42 0.8 33.5 0
20:25 1022 30.18 851 25.13 13.4 56.1 42 0.8 33.4 0
20:30 1021 30.15 851 25.13 13.1 55.6 42 0.7 33.3 0
20:35 1021 30.15 851 25.13 12.9 55.3 42 0.4 32.6 0
20:40 1022 30.18 851 25.13 13.2 55.8 39 -0.4 31.3 0
20:45 1022 30.18 851 25.13 13.8 56.9 37 -0.5 31.1 0
20:50 1022 30.18 851 25.13 14.2 57.6 36 -0.7 30.8 0
20:55 1022 30.18 851 25.13 14.5 58.1 35 -0.8 30.6 0
21:00 1022 30.18 851 25.13 15.3 59.5 32 -1.3 29.6 0
21:05 1022 30.18 851 25.13 15.7 60.2 31 -1.4 29.5 0
21:10 1022 30.18 851 25.13 16 60.9 29 -1.7 28.9 0
21:15 1022 30.18 851 25.13 16.5 61.6 28 -1.9 28.6 0
21:20 1022 30.18 851 25.13 17.1 62.7 28 -1.6 29.1 0
21:25 1022 30.18 851 25.13 16.9 62.4 28 -1.8 28.7 0
21:30 1022 30.18 851 25.13 16.9 62.5 27 -2.2 28.1 0
21:35 1022 30.18 851 25.13 16.1 61 29 -1.8 28.8 0
21:40 1022 30.18 851 25.13 15.9 60.7 28 -2.5 27.5 0
21:45 1022 30.18 851 25.13 16.3 61.4 27 -2.5 27.5 0
21:50 1022 30.18 851 25.13 16.7 62 26 -2.8 27 0
21:55 1022 30.18 851 25.13 16.6 61.8 26 -2.8 26.9 0
22:00 1022 30.18 851 25.13 15.9 60.6 28 -2.5 27.5 0
22:05 1022 30.18 851 25.13 15 59.1 30 -2.1 28.2 0
22:10 1022 30.18 851 25.13 15 59 29 -2.7 27.2 0
22:15 1022 30.18 851 25.13 15.5 59.9 29 -2.3 27.9 0
22:20 1022 30.18 851 25.13 15.3 59.6 29 -2.3 27.8 0
22:25 1022 30.18 851 25.13 14.1 57.4 38 0.2 32.4 0
22:30 1022 30.18 851 25.13 13.3 55.9 34 -2 28.3 0
22:35 1022 30.18 851 25.13 12.8 55.1 43 0.8 33.4 0
22:40 1022 30.18 851 25.13 12.6 54.6 36 -2 28.4 0
22:45 1022 30.18 851 25.13 13.1 55.5 37 -1.3 29.7 0
22:50 1022 30.18 851 25.13 13.2 55.8 37 -1.2 29.8 0
22:55 1022 30.18 851 25.13 12.1 53.7 42 -0.3 31.4 0
23:00 1022 30.18 851 25.13 11.3 52.4 43 -0.8 30.6 0
23:05 1022 30.18 851 25.13 11.7 53 39 -1.6 29.1 0
23:10 1022 30.18 851 25.13 12.5 54.6 38 -1.5 29.3 0
23:15 1022 30.18 851 25.13 12.8 55.1 38 -1.2 29.9 0
23:20 1022 30.18 851 25.13 13.2 55.7 34 -2.4 27.7 0
23:25 1022 30.18 851 25.13 12.9 55.2 38 -1 30.3 0
23:30 1022 30.18 851 25.13 12.3 54.2 38 -1.4 29.5 0
23:35 1022 30.18 851 25.13 12.2 54 39 -1.2 29.8 0
23:40 1022 30.18 851 25.13 11.6 52.9 41 -1.1 30 0
23:45 1022 30.18 851 25.13 12.1 53.8 37 -2 28.4 0
23:50 1022 30.18 851 25.13 12.7 54.8 36 -2.1 28.2 0
23:55 1022 30.18 851 25.13 13 55.5 35 -2.1 28.2 0
24:00 1022 30.18 851 25.13 12.6 54.6 40 -0.5 31.1 0